• Join FlightAware (Why Join?)
  • Login
  • US Flag 
03:06AM EDT


 

Airport Tracker/Info


-or-


 

Live Flight TrackerFlight Track Log ✈ JBU1329 ✈ 18-Jun-2013 ✈ KBOS - KBWI

Flight Track Log - Related Links

Times and Time Zones

All times are in EDT time to prevent confusion due to time zone crossing. See the JBU1329 flight status page for this flight to view local times or setup timezone preferences in your user account.

Time Position Orientation Groundspeed Altitude Reporting Facility
EDT Latitude Longitude Course Direction KTS MPH feet Rate Location/Type
09:15AM 42.3667 -70.9667 259° West 174 200 800  Level KA90
09:15AM 42.3667 -70.9333 90° East 178 205 1,900 2,160 Climbing KA90
09:16AM 42.3831 -70.8578 74° East 243 280 4,400 2,580 Climbing Boston Center
09:17AM 42.1057 -71.5549 265° West  Level FlightAware Approximate
09:17AM 42.3775 -70.7594 94° East 248 285 6,900  Level Boston Center
09:18AM 42.0978 -71.6421 251° West  Level FlightAware Approximate
09:18AM 42.3042 -70.7278 162° South 210 242 10,200  Level Boston Center
09:19AM 42.0796 -71.7264 259° West  Level FlightAware Approximate
09:19AM 42.2339 -70.7744 206° Southwest 213 245 12,200  Level Boston Center
09:20AM 42.0672 -71.8128 259° West  Level FlightAware Approximate
09:20AM 42.2064 -70.8844 251° West 217 250 15,200  Level Boston Center
09:21AM 42.1911 -70.9914 259° West 288 331 17,600 2,700 Climbing Boston Center
09:22AM 42.1761 -71.1289 262° West 317 365 20,600 2,520 Climbing Boston Center
09:23AM 42.1586 -71.2553 259° West 336 387 22,700 1,860 Climbing Boston Center
09:24AM 42.1267 -71.3792 251° West 341 392 24,400 1,680 Climbing Boston Center
09:25AM 42.0839 -71.4975 244° Southwest 346 398 26,100 1,680 Climbing Boston Center
09:26AM 42.0347 -71.6211 242° Southwest 358 412 27,800 1,380 Climbing Boston Center
09:27AM 41.9878 -71.7475 243° Southwest 370 426 28,900 1,560 Climbing Boston Center
09:28AM 41.9406 -71.8708 243° Southwest 375 432 31,000 1,500 Climbing Boston Center
09:29AM 41.8953 -71.9911 243° Southwest 375 432 32,000 480 Climbing Boston Center
09:30AM 41.8478 -72.1167 243° Southwest 370 426 32,000  Level Boston Center
09:31AM 41.7981 -72.2453 243° Southwest 370 426 32,000  Level Boston Center
09:32AM 41.7500 -72.3733 243° Southwest 375 432 32,000  Level Boston Center
09:33AM 41.7022 -72.5014 243° Southwest 381 438 32,000  Level Boston Center
09:34AM 41.6561 -72.6122 241° Southwest 381 438 32,000  Level Boston Center
09:35AM 41.6081 -72.7428 244° Southwest 386 444 32,000  Level Boston Center
09:36AM 41.5597 -72.8700 243° Southwest 391 450 32,000  Level Boston Center
09:37AM 41.5092 -73.0083 244° Southwest 385 443 32,000  Level Boston Center
09:38AM 41.4583 -73.1381 242° Southwest 390 449 32,000  Level Boston Center
09:39AM 41.4075 -73.2647 242° Southwest 390 449 32,000  Level Boston Center
09:42AM 41.2889 -73.5683 243° Southwest 385 443 32,000  Level New York Center
09:43AM 41.2236 -73.6842 233° Southwest 391 450 32,000  Level New York Center
09:44AM 41.1475 -73.8131 232° Southwest 409 471 32,000  Level New York Center
09:45AM 41.0797 -73.9283 232° Southwest 409 471 32,000  Level New York Center
09:46AM 41.0122 -74.0381 231° Southwest 409 471 32,000  Level New York Center
09:47AM 40.9422 -74.1556 232° Southwest 403 464 32,000 -960 Level New York Center
09:48AM 40.8703 -74.2644 229° Southwest 403 464 30,200 -1,980 Descending New York Center
09:49AM 40.8022 -74.3814 232° Southwest 408 470 28,100 -1,200 Descending New York Center
09:50AM 40.7342 -74.4928 231° Southwest 408 470 27,900 -120 Descending New York Center
09:51AM 40.6683 -74.6014 231° Southwest 398 458 27,900  Level New York Center
09:52AM 40.6019 -74.7153 233° Southwest 398 458 28,000  Climbing New York Center
09:53AM 40.5297 -74.8203 228° Southwest 398 458 27,900 -900 Descending New York Center
09:54AM 40.4550 -74.9250 227° Southwest 398 458 26,300 -1,920 Descending New York Center
09:55AM 40.3850 -75.0217 226° Southwest 403 464 24,100 -2,100 Descending New York Center
09:56AM 40.3147 -75.1233 228° Southwest 403 464 22,100 -2,040 Descending New York Center
09:57AM 40.2422 -75.2222 226° Southwest 391 450 20,100 -1,620 Descending New York Center
09:58AM 40.1631 -75.3314 227° Southwest 385 443 19,000 -600 Descending New York Center
09:59AM 40.0944 -75.4272 227° Southwest 379 436 19,000  Level New York Center
10:00AM 40.0261 -75.5228 227° Southwest 374 430 19,000 -300 Level New York Center
10:01AM 39.9642 -75.6081 227° Southwest 367 422 18,500 -1,380 Descending New York Center
10:02AM 39.8950 -75.7197 231° Southwest 367 422 16,300 -1,260 Descending New York Center
10:03AM 39.8431 -75.8161 235° Southwest 367 422 16,100 -120 Descending New York Center
10:04AM 39.7817 -75.9306 235° Southwest 362 417 16,100 -1,560 Level New York Center
10:05AM 39.7000 -76.1000 238° Southwest 337 388 12,200 -1,860 Descending Potomac TRACON
10:06AM 39.6333 -76.1833 224° Southwest 297 342 11,400 -1,260 Descending Potomac TRACON
10:07AM 39.5833 -76.2667 232° Southwest 283 326 9,700 -1,740 Descending Potomac TRACON
10:08AM 39.5333 -76.3333 226° Southwest 280 322 8,000 -1,620 Descending Potomac TRACON
10:09AM 39.4667 -76.4000 218° Southwest 275 316 6,500 -1,440 Descending Potomac TRACON
10:10AM 39.4000 -76.4167 191° South 266 306 5,100 -1,020 Descending Potomac TRACON
10:11AM 39.3333 -76.4000 169° South 260 299 4,500 -540 Descending Potomac TRACON
10:12AM 39.2500 -76.3833 171° South 259 298 4,000 -240 Descending Potomac TRACON
10:13AM 39.1833 -76.3667 169° South 261 300 4,000 -120 Level Potomac TRACON
10:14AM 39.1333 -76.4167 218° Southwest 217 250 3,800 -600 Descending Potomac TRACON
10:15AM 39.1000 -76.4667 229° Southwest 207 238 2,800 -900 Descending Potomac TRACON
10:16AM 39.1000 -76.5500 270° West 205 236 2,100 -540 Descending Potomac TRACON
10:17AM 39.1000 -76.6000 270° West 182 209 1,800 -720 Descending Potomac TRACON
10:18AM 39.1333 -76.6333 322° Northwest 151 174 800 -1,020 Descending Potomac TRACON
10:20AM 39.1667 -76.6667 270° West  Level FlightAware Approximate